createdAt,value
2022-08-26T00:01:13.320Z,62.50
2022-08-26T00:03:40.758Z,62.40
2022-08-26T00:06:08.904Z,62.40
2022-08-26T00:08:39.624Z,62.30
2022-08-26T00:11:09.389Z,62.30
2022-08-26T00:13:37.384Z,62.30
2022-08-26T00:16:05.344Z,62.30
2022-08-26T00:18:33.202Z,62.30
2022-08-26T00:21:08.669Z,62.30
2022-08-26T00:31:11.242Z,62.20
2022-08-26T00:33:44.853Z,62.30
2022-08-26T00:36:20.006Z,62.30
2022-08-26T00:38:48.117Z,62.20
2022-08-26T00:41:17.002Z,62.30
2022-08-26T00:48:35.091Z,62.40
2022-08-26T00:51:08.362Z,62.50
2022-08-26T00:53:41.460Z,62.60
2022-08-26T00:56:19.410Z,62.70
2022-08-26T00:58:48.117Z,62.90
2022-08-26T01:01:16.050Z,63.10
2022-08-26T01:03:44.609Z,63.80
2022-08-26T01:06:13.563Z,64.20
2022-08-26T01:08:41.408Z,64.40
2022-08-26T01:11:12.833Z,64.00
2022-08-26T01:13:40.546Z,64.60
2022-08-26T01:16:12.820Z,64.50
2022-08-26T01:18:42.241Z,64.60
2022-08-26T01:21:16.066Z,64.10
2022-08-26T01:23:49.850Z,63.70
2022-08-26T01:26:24.427Z,63.50
2022-08-26T01:28:56.677Z,63.60
2022-08-26T01:31:29.035Z,63.50
2022-08-26T01:34:03.559Z,63.60
2022-08-26T01:36:31.331Z,63.90
2022-08-26T01:38:58.547Z,63.50
2022-08-26T01:41:27.257Z,63.40
2022-08-26T01:43:57.931Z,63.50
2022-08-26T01:50:34.103Z,63.20
2022-08-26T01:53:06.354Z,63.20
2022-08-26T01:55:34.526Z,63.30
2022-08-26T01:58:06.731Z,63.30
2022-08-26T02:00:36.240Z,63.20
2022-08-26T02:03:21.712Z,63.30
2022-08-26T02:05:58.174Z,63.20
2022-08-26T02:08:27.276Z,63.20
2022-08-26T02:10:55.309Z,63.20
2022-08-26T02:13:32.266Z,63.20
2022-08-26T02:16:01.352Z,63.30
2022-08-26T02:18:32.876Z,63.10
2022-08-26T02:21:00.439Z,63.20
2022-08-26T02:23:27.530Z,63.10
2022-08-26T02:26:09.052Z,63.10
2022-08-26T02:28:58.467Z,63.00
2022-08-26T02:31:25.745Z,63.10
2022-08-26T02:33:52.731Z,62.90
2022-08-26T02:36:25.096Z,62.80
2022-08-26T02:38:56.446Z,62.80
2022-08-26T02:41:23.821Z,62.60
2022-08-26T02:43:51.685Z,62.60
2022-08-26T02:51:21.862Z,62.40
2022-08-26T02:53:49.105Z,62.60
2022-08-26T02:56:15.971Z,62.70
2022-08-26T02:58:42.951Z,62.80
2022-08-26T03:01:21.166Z,62.80
2022-08-26T03:03:49.265Z,63.20
2022-08-26T03:06:17.135Z,63.60
2022-08-26T03:08:44.696Z,64.50
2022-08-26T03:11:12.521Z,65.60
2022-08-26T03:13:40.847Z,66.30
2022-08-26T03:16:08.180Z,66.50
2022-08-26T03:18:35.511Z,66.20
2022-08-26T03:21:11.504Z,65.10
2022-08-26T03:23:39.847Z,64.40
2022-08-26T03:26:08.416Z,64.20
2022-08-26T03:28:58.271Z,64.50
2022-08-26T03:31:25.894Z,64.30
2022-08-26T03:33:56.585Z,64.10
2022-08-26T03:36:30.861Z,64.50
2022-08-26T03:38:58.664Z,64.80
2022-08-26T03:41:25.631Z,64.30
2022-08-26T03:43:52.623Z,64.20
2022-08-26T03:50:34.268Z,64.00
2022-08-26T03:53:07.413Z,64.20
2022-08-26T03:55:40.153Z,64.20
2022-08-26T03:58:07.335Z,64.20
2022-08-26T04:00:34.503Z,64.30
2022-08-26T04:03:03.215Z,64.20
2022-08-26T04:05:30.161Z,64.30
2022-08-26T04:07:57.008Z,64.80
2022-08-26T04:10:29.273Z,65.50
2022-08-26T04:12:58.936Z,65.40
2022-08-26T04:15:27.007Z,65.10
2022-08-26T04:17:54.053Z,65.00
2022-08-26T04:20:22.829Z,65.00
2022-08-26T04:22:50.949Z,65.00
2022-08-26T04:25:18.704Z,65.00
2022-08-26T04:32:46.204Z,65.10
2022-08-26T04:35:13.565Z,66.80
2022-08-26T04:37:43.064Z,68.20
2022-08-26T04:40:11.108Z,69.20
2022-08-26T04:42:37.959Z,69.10
2022-08-26T04:45:11.569Z,69.50
2022-08-26T04:52:41.984Z,72.10
2022-08-26T04:55:09.362Z,73.20
2022-08-26T04:57:39.809Z,74.50
2022-08-26T05:00:11.999Z,74.90
2022-08-26T05:02:39.671Z,75.30
2022-08-26T05:05:08.002Z,75.80
2022-08-26T05:07:35.515Z,74.20
2022-08-26T05:10:04.515Z,71.80
2022-08-26T05:12:35.829Z,72.40
2022-08-26T05:15:05.636Z,72.70
2022-08-26T05:17:33.625Z,74.10
2022-08-26T05:20:00.527Z,75.10
2022-08-26T05:22:27.462Z,75.90
2022-08-26T05:24:54.266Z,76.10
2022-08-26T05:27:23.702Z,77.20
2022-08-26T05:29:54.429Z,77.60
2022-08-26T05:32:21.683Z,78.20
2022-08-26T05:34:48.516Z,78.30
2022-08-26T05:37:19.542Z,78.60
2022-08-26T05:39:51.008Z,77.20
2022-08-26T05:42:19.939Z,75.50
2022-08-26T05:44:53.585Z,76.20
2022-08-26T05:51:59.875Z,78.10
2022-08-26T05:54:26.855Z,79.20
2022-08-26T05:56:53.730Z,79.30
2022-08-26T05:59:24.156Z,79.40
2022-08-26T06:01:52.340Z,79.50
2022-08-26T06:04:20.128Z,79.40
2022-08-26T06:06:47.241Z,80.00
2022-08-26T06:09:14.287Z,79.60
2022-08-26T06:11:44.727Z,79.90
2022-08-26T06:14:11.777Z,79.10
2022-08-26T06:16:45.226Z,79.00
2022-08-26T06:19:14.289Z,78.90
2022-08-26T06:21:45.029Z,79.50
2022-08-26T06:24:32.244Z,78.60
2022-08-26T06:27:09.631Z,78.10
2022-08-26T06:29:38.906Z,77.40
2022-08-26T06:32:06.834Z,78.50
2022-08-26T06:34:34.160Z,79.30
2022-08-26T06:37:06.384Z,79.30
2022-08-26T06:39:33.854Z,78.70
2022-08-26T06:42:01.047Z,79.60
2022-08-26T06:44:30.221Z,81.50
2022-08-26T06:46:57.258Z,81.40
2022-08-26T06:49:26.611Z,77.20
2022-08-26T06:51:58.379Z,74.40
2022-08-26T06:54:26.844Z,75.90
2022-08-26T06:56:53.885Z,77.50
2022-08-26T06:59:21.826Z,79.40
2022-08-26T07:01:49.749Z,78.90
2022-08-26T07:04:20.342Z,79.80
2022-08-26T07:06:52.723Z,76.20
2022-08-26T07:09:24.923Z,75.80
2022-08-26T07:11:52.543Z,75.30
2022-08-26T07:14:21.387Z,76.60
2022-08-26T07:16:50.691Z,76.10
2022-08-26T07:19:29.818Z,74.90
2022-08-26T07:22:03.615Z,75.40
2022-08-26T07:24:32.309Z,73.70
2022-08-26T07:27:06.125Z,73.80
2022-08-26T07:29:34.442Z,73.80
2022-08-26T07:32:01.699Z,74.50
2022-08-26T07:34:28.757Z,75.80
2022-08-26T07:36:57.005Z,76.80
2022-08-26T07:39:31.443Z,75.60
2022-08-26T07:42:08.129Z,76.30
2022-08-26T07:44:39.783Z,75.40
2022-08-26T07:47:24.262Z,75.60
2022-08-26T07:49:54.943Z,74.30
2022-08-26T07:52:26.204Z,73.40
2022-08-26T07:54:55.255Z,73.40
2022-08-26T07:57:22.246Z,74.00
2022-08-26T07:59:51.823Z,74.10
2022-08-26T08:02:21.335Z,75.10
2022-08-26T08:04:48.287Z,74.40
2022-08-26T08:07:15.391Z,75.80
2022-08-26T08:09:42.396Z,74.80
2022-08-26T08:12:14.136Z,74.00
2022-08-26T08:14:42.236Z,73.40
2022-08-26T08:19:39.346Z,75.00
2022-08-26T08:27:08.951Z,73.10
2022-08-26T08:29:37.683Z,71.90
2022-08-26T08:32:05.360Z,71.40
2022-08-26T08:34:35.440Z,71.50
2022-08-26T08:37:03.129Z,72.20
2022-08-26T08:39:32.611Z,72.40
2022-08-26T08:42:08.142Z,72.40
2022-08-26T08:44:40.942Z,72.30
2022-08-26T08:47:24.135Z,70.20
2022-08-26T08:49:54.539Z,70.10
2022-08-26T08:52:36.211Z,70.90
2022-08-26T08:55:05.817Z,71.70
2022-08-26T08:58:02.397Z,70.10
2022-08-26T09:00:46.814Z,70.20
2022-08-26T09:03:28.048Z,70.90
2022-08-26T09:05:58.904Z,71.00
2022-08-26T09:08:30.035Z,70.90
2022-08-26T09:11:00.327Z,70.20
2022-08-26T09:13:28.379Z,70.80
2022-08-26T09:16:10.070Z,69.70
2022-08-26T09:18:59.061Z,68.90
2022-08-26T09:26:30.772Z,69.60
2022-08-26T09:29:04.009Z,69.60
2022-08-26T09:31:36.986Z,69.40
2022-08-26T09:34:17.284Z,68.40
2022-08-26T09:36:53.745Z,68.40
2022-08-26T09:39:24.175Z,69.20
2022-08-26T09:42:19.344Z,69.40
2022-08-26T09:45:06.498Z,68.20
2022-08-26T09:47:56.027Z,67.90
2022-08-26T09:50:55.188Z,67.80
2022-08-26T09:53:30.306Z,68.50
2022-08-26T09:56:25.511Z,67.60
2022-08-26T09:58:56.059Z,68.70
2022-08-26T10:01:40.193Z,67.90
2022-08-26T10:04:13.956Z,67.80
2022-08-26T10:06:54.142Z,67.30
2022-08-26T10:09:22.753Z,68.30
2022-08-26T10:11:57.154Z,68.70
2022-08-26T10:14:35.403Z,67.20
2022-08-26T10:17:21.879Z,67.00
2022-08-26T10:19:57.829Z,66.90
2022-08-26T10:22:37.217Z,67.00
2022-08-26T10:25:09.263Z,66.60
2022-08-26T10:27:40.596Z,66.90
2022-08-26T10:30:21.327Z,66.30
2022-08-26T10:33:04.755Z,67.10
2022-08-26T10:35:33.220Z,67.40
2022-08-26T10:38:11.333Z,67.60
2022-08-26T10:41:00.539Z,66.20
2022-08-26T10:43:41.568Z,66.70
2022-08-26T10:46:16.971Z,66.80
2022-08-26T10:48:56.370Z,67.00
2022-08-26T10:51:36.501Z,65.80
2022-08-26T10:54:15.598Z,65.60
2022-08-26T10:56:54.370Z,65.30
2022-08-26T10:59:44.247Z,64.90
2022-08-26T11:02:15.968Z,65.00
2022-08-26T11:04:48.422Z,64.00
2022-08-26T11:07:37.007Z,64.80
2022-08-26T11:10:18.769Z,63.50
2022-08-26T11:12:49.300Z,63.00
2022-08-26T11:15:24.746Z,63.00
2022-08-26T11:17:52.111Z,62.20
2022-08-26T11:20:39.298Z,62.20
2022-08-26T11:28:06.088Z,61.70
2022-08-26T11:30:37.778Z,61.20
2022-08-26T11:33:05.406Z,60.70
2022-08-26T11:35:37.460Z,60.80
2022-08-26T11:38:28.231Z,60.40
2022-08-26T11:41:09.882Z,60.10
2022-08-26T11:43:39.476Z,59.40
2022-08-26T11:46:10.695Z,59.40
2022-08-26T11:48:43.354Z,58.40
2022-08-26T11:51:22.472Z,58.90
2022-08-26T11:53:49.778Z,58.30
2022-08-26T11:56:32.462Z,57.40
2022-08-26T11:59:03.608Z,57.30
2022-08-26T12:01:43.897Z,57.20
2022-08-26T12:04:26.490Z,57.70
2022-08-26T12:06:53.916Z,57.30
2022-08-26T12:09:22.454Z,57.30
2022-08-26T12:11:49.628Z,57.50
2022-08-26T12:14:27.716Z,56.70
2022-08-26T12:16:54.959Z,56.90
2022-08-26T12:19:27.608Z,56.70
2022-08-26T12:22:10.527Z,56.20
2022-08-26T12:25:36.091Z,56.80
2022-08-26T12:28:05.528Z,55.40
2022-08-26T12:30:32.453Z,56.00
2022-08-26T12:33:22.043Z,55.30
2022-08-26T12:35:54.366Z,56.40
2022-08-26T12:38:22.472Z,56.60
2022-08-26T12:40:50.442Z,57.30
2022-08-26T12:43:39.401Z,58.30
2022-08-26T12:46:07.690Z,59.80
2022-08-26T12:48:38.525Z,59.40
2022-08-26T12:51:17.108Z,59.90
2022-08-26T12:53:44.688Z,60.20
2022-08-26T12:56:39.454Z,60.80
2022-08-26T12:59:23.832Z,61.00
2022-08-26T13:01:52.352Z,62.80
2022-08-26T13:04:31.348Z,63.60
2022-08-26T13:07:25.537Z,63.90
2022-08-26T13:09:56.097Z,64.30
2022-08-26T13:12:32.189Z,64.20
2022-08-26T13:15:00.739Z,65.00
2022-08-26T13:20:04.190Z,99.90
2022-08-26T13:22:33.413Z,99.90
2022-08-26T13:25:58.776Z,99.90
2022-08-26T13:28:36.706Z,99.90
2022-08-26T13:31:09.988Z,99.90
2022-08-26T13:33:48.591Z,99.90
2022-08-26T13:36:17.555Z,99.90
2022-08-26T13:38:44.680Z,99.90
2022-08-26T13:41:15.375Z,99.90
2022-08-26T13:43:43.539Z,99.90
2022-08-26T13:46:10.442Z,99.90
2022-08-26T13:48:38.185Z,99.90
2022-08-26T13:51:08.153Z,99.90
2022-08-26T13:53:35.866Z,99.90
2022-08-26T13:56:03.889Z,99.90
2022-08-26T13:58:32.845Z,99.90
2022-08-26T14:01:00.086Z,99.90
2022-08-26T14:03:26.986Z,99.90
2022-08-26T14:05:53.919Z,99.90
2022-08-26T14:08:22.273Z,99.90
2022-08-26T14:10:49.859Z,99.90
2022-08-26T14:13:17.056Z,99.90
2022-08-26T14:15:43.933Z,99.90
2022-08-26T14:18:16.853Z,99.90
2022-08-26T14:20:48.414Z,99.90
2022-08-26T14:23:16.230Z,99.90
2022-08-26T14:26:40.021Z,99.90
2022-08-26T14:29:09.006Z,99.90
2022-08-26T14:31:37.874Z,99.90
2022-08-26T14:34:06.858Z,99.90
2022-08-26T14:36:35.376Z,99.90
2022-08-26T14:39:11.026Z,99.90
2022-08-26T14:41:54.299Z,99.90
2022-08-26T14:44:24.379Z,99.90
2022-08-26T14:46:52.903Z,99.90
2022-08-26T14:49:22.128Z,99.90
2022-08-26T14:51:49.866Z,99.90
2022-08-26T14:54:18.343Z,99.90
2022-08-26T14:56:51.257Z,99.90
2022-08-26T14:59:27.144Z,99.90
2022-08-26T15:01:55.040Z,99.90
2022-08-26T15:04:23.262Z,99.90
2022-08-26T15:06:52.019Z,99.90
2022-08-26T15:09:19.045Z,99.90
2022-08-26T15:11:50.721Z,99.90
2022-08-26T15:14:19.529Z,99.90
2022-08-26T15:16:56.052Z,99.90
2022-08-26T15:19:23.993Z,99.90
2022-08-26T15:21:51.529Z,99.90
2022-08-26T15:25:15.464Z,99.90
2022-08-26T15:27:45.520Z,99.90
2022-08-26T15:30:12.725Z,99.90
2022-08-26T15:32:39.828Z,99.90
2022-08-26T15:35:09.279Z,99.90
2022-08-26T15:37:36.646Z,99.90
2022-08-26T15:40:09.233Z,99.90
2022-08-26T15:42:36.389Z,99.90
2022-08-26T15:45:03.652Z,99.90
2022-08-26T15:47:31.087Z,99.90
2022-08-26T15:50:04.631Z,99.90
2022-08-26T15:52:34.631Z,99.90
2022-08-26T15:57:32.732Z,99.90
2022-08-26T16:00:00.058Z,99.90
2022-08-26T16:02:30.435Z,99.90
2022-08-26T16:05:02.686Z,99.90
2022-08-26T16:07:31.480Z,99.90
2022-08-26T16:09:58.443Z,99.90
2022-08-26T16:12:25.372Z,99.90
2022-08-26T16:15:03.913Z,99.90
2022-08-26T16:17:31.411Z,99.90
2022-08-26T16:20:04.586Z,99.90
2022-08-26T16:22:31.801Z,99.90
2022-08-26T16:25:22.145Z,99.90
2022-08-26T16:27:49.955Z,99.90
2022-08-26T16:30:17.052Z,99.90
2022-08-26T16:32:52.438Z,99.90
2022-08-26T16:35:19.353Z,99.90
2022-08-26T16:37:47.483Z,99.90
2022-08-26T16:40:18.756Z,99.90
2022-08-26T16:42:46.276Z,99.90
2022-08-26T16:45:13.212Z,99.90
2022-08-26T16:47:40.575Z,99.90
2022-08-26T16:50:13.669Z,99.90
2022-08-26T16:52:41.549Z,99.90
2022-08-26T16:55:26.431Z,99.90
2022-08-26T16:57:56.970Z,99.90
2022-08-26T17:00:28.179Z,99.90
2022-08-26T17:03:01.283Z,99.90
2022-08-26T17:05:31.143Z,99.70
2022-08-26T17:07:59.708Z,99.90
2022-08-26T17:10:32.541Z,99.60
2022-08-26T17:13:00.353Z,99.80
2022-08-26T17:15:27.409Z,99.20
2022-08-26T17:17:54.822Z,99.20
2022-08-26T17:20:24.732Z,99.50
2022-08-26T17:22:56.397Z,99.80
2022-08-26T17:30:21.057Z,99.40
2022-08-26T17:32:48.682Z,99.80
2022-08-26T17:35:16.832Z,99.90
2022-08-26T17:37:44.462Z,99.90
2022-08-26T17:40:17.133Z,99.20
2022-08-26T17:42:44.182Z,99.50
2022-08-26T17:45:12.386Z,99.60
2022-08-26T17:47:39.693Z,99.90
2022-08-26T17:50:11.669Z,99.90
2022-08-26T17:52:39.501Z,99.80
2022-08-26T17:55:09.070Z,99.90
2022-08-26T17:57:40.846Z,99.90
2022-08-26T18:00:17.572Z,99.90
2022-08-26T18:02:47.739Z,99.90
2022-08-26T18:05:17.502Z,99.90
2022-08-26T18:07:44.908Z,99.90
2022-08-26T18:10:19.945Z,99.90
2022-08-26T18:12:47.749Z,99.90
2022-08-26T18:15:21.306Z,99.80
2022-08-26T18:17:48.123Z,99.90
2022-08-26T18:20:20.801Z,99.90
2022-08-26T18:22:50.239Z,99.90
2022-08-26T18:25:17.717Z,99.90
2022-08-26T18:28:41.410Z,99.90
2022-08-26T18:31:09.009Z,99.90
2022-08-26T18:33:35.943Z,99.90
2022-08-26T18:36:09.214Z,99.90
2022-08-26T18:38:36.144Z,99.90
2022-08-26T18:41:04.733Z,99.90
2022-08-26T18:43:31.662Z,99.90
2022-08-26T18:46:08.867Z,99.90
2022-08-26T18:48:38.891Z,99.90
2022-08-26T18:51:15.162Z,99.90
2022-08-26T18:53:44.424Z,99.90
2022-08-26T18:56:18.540Z,99.90
2022-08-26T18:58:45.983Z,99.90
2022-08-26T19:01:18.263Z,99.90
2022-08-26T19:03:46.694Z,99.90
2022-08-26T19:06:23.899Z,99.90
2022-08-26T19:08:50.875Z,99.90
2022-08-26T19:11:31.203Z,99.90
2022-08-26T19:14:20.303Z,99.90
2022-08-26T19:16:50.025Z,99.90
2022-08-26T19:19:17.340Z,99.90
2022-08-26T19:21:44.468Z,99.90
2022-08-26T19:24:17.454Z,99.90
2022-08-26T19:27:40.843Z,99.90
2022-08-26T19:30:08.306Z,99.90
2022-08-26T19:32:35.477Z,99.90
2022-08-26T19:35:03.104Z,99.90
2022-08-26T19:37:29.973Z,99.90
2022-08-26T19:39:57.188Z,99.90
2022-08-26T19:42:24.259Z,99.90
2022-08-26T19:45:24.309Z,99.90
2022-08-26T19:47:53.609Z,99.90
2022-08-26T19:50:22.066Z,99.90
2022-08-26T19:52:49.372Z,99.90
2022-08-26T19:55:17.796Z,99.90
2022-08-26T19:57:45.220Z,99.90
2022-08-26T20:00:15.098Z,99.30
2022-08-26T20:02:43.891Z,99.10
2022-08-26T20:05:13.185Z,98.70
2022-08-26T20:07:40.251Z,98.40
2022-08-26T20:10:11.917Z,98.50
2022-08-26T20:12:40.711Z,98.20
2022-08-26T20:15:10.048Z,97.70
2022-08-26T20:17:37.252Z,98.20
2022-08-26T20:20:32.945Z,98.50
2022-08-26T20:23:03.662Z,98.80
2022-08-26T20:25:36.759Z,99.00
2022-08-26T20:29:00.255Z,98.40
2022-08-26T20:31:28.220Z,99.10
2022-08-26T20:33:55.615Z,99.00
2022-08-26T20:36:28.130Z,99.40
2022-08-26T20:38:56.830Z,99.60
2022-08-26T20:41:25.649Z,99.90
2022-08-26T20:43:56.296Z,99.90
2022-08-26T20:46:25.094Z,99.90
2022-08-26T20:48:53.038Z,99.90
2022-08-26T20:51:23.650Z,99.90
2022-08-26T20:53:50.996Z,99.90
2022-08-26T20:56:24.329Z,99.90
2022-08-26T20:58:53.487Z,99.90
2022-08-26T21:01:23.485Z,99.90
2022-08-26T21:03:57.066Z,99.90
2022-08-26T21:06:24.578Z,99.90
2022-08-26T21:08:51.519Z,99.90
2022-08-26T21:11:20.760Z,99.90
2022-08-26T21:14:04.333Z,99.90
2022-08-26T21:16:36.733Z,99.50
2022-08-26T21:19:08.784Z,99.50
2022-08-26T21:21:35.878Z,99.00
2022-08-26T21:24:03.326Z,99.10
2022-08-26T21:26:30.268Z,99.10
2022-08-26T21:29:53.708Z,99.30
2022-08-26T21:32:20.636Z,99.90
2022-08-26T21:34:47.756Z,99.90
2022-08-26T21:37:16.625Z,99.90
2022-08-26T21:39:44.300Z,99.80
2022-08-26T21:42:11.231Z,99.60
2022-08-26T21:44:38.410Z,99.10
2022-08-26T21:47:05.531Z,99.80
2022-08-26T21:49:32.375Z,99.70
2022-08-26T21:52:01.692Z,99.90
2022-08-26T21:54:28.560Z,99.90
2022-08-26T21:56:55.518Z,99.90
2022-08-26T21:59:22.409Z,99.90
2022-08-26T22:01:49.584Z,99.90
2022-08-26T22:04:17.244Z,99.90
2022-08-26T22:06:49.797Z,99.90
2022-08-26T22:09:22.502Z,99.90
2022-08-26T22:11:49.567Z,99.90
2022-08-26T22:14:17.728Z,99.90
2022-08-26T22:16:50.275Z,99.90
2022-08-26T22:19:20.071Z,99.90
2022-08-26T22:21:50.084Z,99.90
2022-08-26T22:24:19.022Z,99.90
2022-08-26T22:26:46.623Z,99.90
2022-08-26T22:34:10.834Z,99.90
2022-08-26T22:36:43.584Z,99.90
2022-08-26T22:39:15.452Z,99.90
2022-08-26T22:41:44.016Z,99.90
2022-08-26T22:44:12.143Z,99.90
2022-08-26T22:46:40.119Z,99.90
2022-08-26T22:49:09.569Z,99.90
2022-08-26T22:51:36.499Z,99.90
2022-08-26T22:54:03.441Z,99.90
2022-08-26T22:56:30.378Z,99.90
2022-08-26T22:58:57.272Z,99.90
2022-08-26T23:01:24.216Z,99.90
2022-08-26T23:03:51.083Z,99.90
2022-08-26T23:06:17.981Z,99.90
2022-08-26T23:08:46.482Z,99.90
2022-08-26T23:11:14.264Z,99.90
2022-08-26T23:13:41.196Z,99.90
2022-08-26T23:16:11.043Z,99.90
2022-08-26T23:18:39.329Z,99.90
2022-08-26T23:21:06.908Z,99.90
2022-08-26T23:23:35.336Z,99.90
2022-08-26T23:26:06.154Z,99.90
2022-08-26T23:29:30.097Z,99.90
2022-08-26T23:31:57.075Z,99.90
2022-08-26T23:34:42.468Z,99.90
2022-08-26T23:37:09.353Z,99.90
2022-08-26T23:39:36.973Z,99.90
2022-08-26T23:42:06.005Z,99.90
2022-08-26T23:48:40.972Z,99.90
2022-08-26T23:51:26.578Z,99.90
2022-08-26T23:53:53.584Z,99.90
2022-08-26T23:56:20.408Z,99.90
2022-08-26T23:58:47.835Z,99.90
